createdAt,value
2023-03-10T00:01:21.485Z,90.00
2023-03-10T00:03:22.994Z,110.35
2023-03-10T00:05:24.527Z,470.67
2023-03-10T00:07:26.628Z,235.88
2023-03-10T00:09:28.135Z,226.02
2023-03-10T00:11:29.827Z,300.55
2023-03-10T00:13:31.462Z,231.50
2023-03-10T00:15:33.051Z,363.95
2023-03-10T00:17:35.119Z,287.38
2023-03-10T00:19:36.613Z,150.95
2023-03-10T00:21:38.155Z,188.60
2023-03-10T00:23:39.704Z,198.18
2023-03-10T00:25:41.217Z,186.48
2023-03-10T00:27:42.757Z,176.38
2023-03-10T00:29:44.315Z,141.30
2023-03-10T00:31:45.893Z,137.07
2023-03-10T00:33:47.844Z,143.70
2023-03-10T00:35:49.440Z,126.50
2023-03-10T00:37:50.990Z,149.18
2023-03-10T00:39:53.262Z,152.15
2023-03-10T00:41:54.777Z,167.95
2023-03-10T00:43:57.401Z,134.70
2023-03-10T00:45:59.642Z,173.57
2023-03-10T00:48:01.441Z,172.07
2023-03-10T00:50:03.102Z,177.32
2023-03-10T00:52:04.941Z,149.57
2023-03-10T00:54:06.622Z,165.98
2023-03-10T00:56:16.604Z,127.88
2023-03-10T00:58:18.124Z,160.23
2023-03-10T01:00:20.163Z,167.43
2023-03-10T01:02:21.956Z,158.23
2023-03-10T01:04:23.642Z,183.07
2023-03-10T01:06:26.085Z,144.60
2023-03-10T01:08:27.607Z,213.88
2023-03-10T01:10:29.151Z,165.63
2023-03-10T01:12:30.685Z,174.55
2023-03-10T01:14:32.477Z,288.90
2023-03-10T01:16:34.260Z,192.65
2023-03-10T01:18:36.200Z,163.32
2023-03-10T01:20:37.770Z,192.07
2023-03-10T01:22:39.288Z,158.23
2023-03-10T01:24:40.917Z,128.02
2023-03-10T01:26:42.448Z,182.40
2023-03-10T01:28:43.977Z,172.52
2023-03-10T01:30:45.748Z,134.23
2023-03-10T01:32:47.543Z,128.48
2023-03-10T01:34:49.113Z,132.00
2023-03-10T01:36:50.618Z,146.90
2023-03-10T01:38:52.973Z,131.35
2023-03-10T01:40:54.519Z,152.38
2023-03-10T01:43:14.911Z,124.53
2023-03-10T01:45:16.485Z,130.30
2023-03-10T01:47:18.066Z,146.35
2023-03-10T01:49:24.400Z,143.15
2023-03-10T01:51:26.067Z,131.50
2023-03-10T01:53:28.946Z,147.88
2023-03-10T01:55:33.452Z,147.27
2023-03-10T01:57:50.542Z,135.45
2023-03-10T01:59:53.105Z,128.02
2023-03-10T02:01:56.550Z,130.57
2023-03-10T02:04:05.236Z,143.50
2023-03-10T02:06:10.718Z,142.05
2023-03-10T02:08:12.674Z,137.05
2023-03-10T02:10:15.666Z,135.88
2023-03-10T02:12:18.297Z,121.50
2023-03-10T02:14:20.020Z,129.88
2023-03-10T02:16:22.401Z,126.93
2023-03-10T02:18:25.580Z,113.80
2023-03-10T02:20:41.095Z,119.28
2023-03-10T02:22:42.840Z,126.15
2023-03-10T02:24:50.835Z,115.53
2023-03-10T02:27:04.715Z,116.70
2023-03-10T02:29:59.857Z,120.85
2023-03-10T02:32:54.740Z,107.55
2023-03-10T02:34:58.839Z,110.20
2023-03-10T02:37:00.366Z,112.32
2023-03-10T02:39:01.894Z,103.72
2023-03-10T02:41:23.494Z,109.65
2023-03-10T02:43:28.059Z,104.45
2023-03-10T02:45:33.523Z,100.13
2023-03-10T02:47:35.133Z,94.50
2023-03-10T02:49:37.630Z,96.85
2023-03-10T02:51:45.101Z,88.72
2023-03-10T02:53:46.724Z,78.60
2023-03-10T02:55:48.529Z,89.97
2023-03-10T02:57:50.072Z,81.15
2023-03-10T02:59:51.639Z,82.65
2023-03-10T03:01:53.254Z,82.57
2023-03-10T03:03:54.906Z,80.80
2023-03-10T03:05:57.009Z,57.05
2023-03-10T03:07:58.529Z,68.45
2023-03-10T03:10:00.203Z,63.85
2023-03-10T03:12:01.747Z,80.97
2023-03-10T03:14:03.432Z,68.65
2023-03-10T03:16:09.755Z,75.03
2023-03-10T03:18:11.795Z,55.60
2023-03-10T03:20:14.528Z,62.30
2023-03-10T03:22:16.061Z,68.47
2023-03-10T03:24:18.742Z,58.83
2023-03-10T03:26:23.353Z,39.95
2023-03-10T03:28:25.510Z,44.20
2023-03-10T03:30:28.481Z,45.83
2023-03-10T03:32:30.093Z,45.67
2023-03-10T03:34:31.648Z,40.25
2023-03-10T03:36:33.445Z,41.15
2023-03-10T03:38:34.990Z,42.13
2023-03-10T03:40:37.439Z,39.78
2023-03-10T03:42:43.614Z,30.98
2023-03-10T03:44:45.153Z,28.00
2023-03-10T03:46:46.858Z,45.00
2023-03-10T03:48:48.365Z,46.53
2023-03-10T03:50:50.030Z,42.45
2023-03-10T03:52:52.148Z,44.55
2023-03-10T03:54:53.666Z,47.53
2023-03-10T03:56:55.176Z,59.30
2023-03-10T03:58:57.978Z,49.60
2023-03-10T04:00:59.596Z,48.92
2023-03-10T04:03:02.360Z,36.35
2023-03-10T04:05:06.759Z,33.92
2023-03-10T04:07:08.295Z,37.45
2023-03-10T04:09:32.343Z,30.38
2023-03-10T04:11:48.438Z,36.25
2023-03-10T04:13:53.520Z,39.55
2023-03-10T04:15:56.680Z,40.85
2023-03-10T04:17:58.349Z,38.00
2023-03-10T04:20:07.396Z,54.05
2023-03-10T04:22:59.360Z,63.03
2023-03-10T04:25:53.883Z,37.90
2023-03-10T04:28:01.765Z,41.28
2023-03-10T04:30:29.347Z,31.50
2023-03-10T04:32:32.608Z,25.52
2023-03-10T04:34:34.286Z,24.52
2023-03-10T04:36:35.885Z,31.60
2023-03-10T04:39:29.830Z,28.35
2023-03-10T04:42:23.951Z,30.23
2023-03-10T04:45:18.142Z,29.42
2023-03-10T04:48:12.185Z,25.60
2023-03-10T04:51:07.725Z,24.40
2023-03-10T04:54:01.830Z,33.65
2023-03-10T04:56:57.371Z,39.33
2023-03-10T04:59:51.678Z,44.83
2023-03-10T05:02:41.734Z,64.95
2023-03-10T05:05:25.200Z,40.33
2023-03-10T05:08:19.286Z,75.15
2023-03-10T05:10:40.372Z,112.80
2023-03-10T05:13:31.794Z,91.45
2023-03-10T05:16:29.187Z,74.00
2023-03-10T05:19:23.382Z,92.90
2023-03-10T05:21:24.929Z,105.63
2023-03-10T05:24:18.998Z,93.10
2023-03-10T05:27:14.972Z,75.38
2023-03-10T05:30:14.290Z,43.20
2023-03-10T05:33:08.480Z,36.08
2023-03-10T05:35:11.332Z,33.55
2023-03-10T05:37:12.862Z,35.35
2023-03-10T05:39:14.401Z,30.13
2023-03-10T05:41:16.202Z,30.63
2023-03-10T05:43:17.955Z,41.03
2023-03-10T05:45:19.591Z,43.30
2023-03-10T05:47:21.126Z,35.10
2023-03-10T05:49:22.802Z,31.15
2023-03-10T05:51:24.630Z,29.80
2023-03-10T05:53:26.509Z,29.33
2023-03-10T05:55:29.787Z,36.15
2023-03-10T05:57:31.316Z,31.25
2023-03-10T05:59:32.822Z,32.58
2023-03-10T06:01:34.409Z,19.52
2023-03-10T06:03:38.722Z,26.48
2023-03-10T06:05:40.456Z,29.05
2023-03-10T06:07:43.145Z,33.75
2023-03-10T06:09:44.707Z,37.33
2023-03-10T06:11:46.446Z,36.42
2023-03-10T06:13:48.006Z,20.75
2023-03-10T06:16:04.572Z,16.92
2023-03-10T06:18:15.529Z,12.52
2023-03-10T06:20:17.617Z,13.80
2023-03-10T06:22:19.186Z,19.25
2023-03-10T06:24:20.804Z,12.75
2023-03-10T06:26:22.889Z,12.52
2023-03-10T06:28:25.251Z,16.33
2023-03-10T06:30:38.905Z,16.17
2023-03-10T06:32:41.574Z,20.67
2023-03-10T06:34:43.210Z,18.52
2023-03-10T06:36:45.060Z,15.50
2023-03-10T06:38:47.170Z,17.10
2023-03-10T06:40:48.990Z,19.88
2023-03-10T06:42:51.260Z,18.70
2023-03-10T06:44:55.649Z,18.55
2023-03-10T06:46:57.258Z,18.67
2023-03-10T06:48:58.909Z,15.38
2023-03-10T06:51:00.765Z,17.08
2023-03-10T06:53:21.787Z,13.13
2023-03-10T06:55:23.929Z,22.40
2023-03-10T06:57:25.696Z,17.35
2023-03-10T06:59:27.310Z,11.80
2023-03-10T07:01:33.333Z,15.23
2023-03-10T07:03:36.065Z,15.57
2023-03-10T07:05:37.756Z,12.13
2023-03-10T07:07:44.967Z,14.93
2023-03-10T07:09:46.504Z,17.95
2023-03-10T07:11:48.035Z,11.35
2023-03-10T07:13:49.627Z,12.15
2023-03-10T07:15:51.335Z,14.50
2023-03-10T07:17:56.407Z,14.75
2023-03-10T07:20:05.293Z,11.57
2023-03-10T07:22:06.851Z,14.65
2023-03-10T07:24:08.681Z,12.35
2023-03-10T07:26:10.815Z,10.10
2023-03-10T07:28:12.620Z,8.23
2023-03-10T07:30:15.205Z,11.88
2023-03-10T07:32:17.365Z,10.35
2023-03-10T07:34:18.993Z,11.18
2023-03-10T07:36:20.974Z,10.65
2023-03-10T07:38:31.442Z,10.55
2023-03-10T07:40:33.377Z,9.93
2023-03-10T07:42:44.267Z,10.73
2023-03-10T07:47:09.873Z,14.88
2023-03-10T07:49:11.522Z,10.93
2023-03-10T07:51:13.546Z,9.88
2023-03-10T07:53:15.062Z,14.27
2023-03-10T07:55:17.958Z,16.60
2023-03-10T07:57:20.063Z,14.52
2023-03-10T07:59:21.594Z,12.90
2023-03-10T08:01:23.219Z,15.20
2023-03-10T08:03:26.616Z,13.57
2023-03-10T08:05:32.094Z,12.35
2023-03-10T08:07:33.803Z,12.82
2023-03-10T08:10:05.828Z,14.32
2023-03-10T08:12:08.180Z,14.77
2023-03-10T08:14:20.898Z,17.70
2023-03-10T08:16:28.857Z,15.10
2023-03-10T08:18:31.501Z,14.57
2023-03-10T08:20:34.463Z,16.75
2023-03-10T08:22:36.340Z,12.15
2023-03-10T08:24:41.276Z,16.35
2023-03-10T08:26:42.844Z,14.52
2023-03-10T08:28:48.190Z,11.75
2023-03-10T08:31:03.541Z,15.10
2023-03-10T08:33:10.160Z,13.20
2023-03-10T08:35:11.929Z,13.98
2023-03-10T08:37:13.653Z,14.55
2023-03-10T08:39:18.783Z,10.02
2023-03-10T08:41:24.287Z,13.10
2023-03-10T08:43:28.852Z,18.00
2023-03-10T08:45:30.355Z,13.52
2023-03-10T08:47:32.471Z,9.50
2023-03-10T08:49:34.048Z,10.77
2023-03-10T08:51:40.049Z,9.80
2023-03-10T08:53:41.793Z,10.57
2023-03-10T08:55:49.198Z,11.30
2023-03-10T08:57:50.725Z,11.98
2023-03-10T08:59:52.247Z,11.02
2023-03-10T09:01:53.893Z,14.50
2023-03-10T09:03:57.471Z,13.45
2023-03-10T09:06:01.783Z,8.25
2023-03-10T09:08:03.670Z,9.25
2023-03-10T09:10:05.884Z,12.55
2023-03-10T09:12:09.348Z,7.35
2023-03-10T09:14:12.093Z,9.45
2023-03-10T09:16:14.399Z,11.48
2023-03-10T09:18:20.478Z,7.70
2023-03-10T09:20:28.292Z,9.43
2023-03-10T09:22:30.874Z,7.72
2023-03-10T09:24:32.506Z,6.15
2023-03-10T09:26:34.766Z,10.85
2023-03-10T09:28:37.178Z,8.98
2023-03-10T09:37:33.268Z,8.60
2023-03-10T09:39:34.896Z,7.75
2023-03-10T09:42:08.226Z,8.10
2023-03-10T09:44:46.836Z,9.95
2023-03-10T09:46:53.444Z,9.10
2023-03-10T09:49:01.580Z,8.82
2023-03-10T09:51:13.019Z,7.63
2023-03-10T09:53:38.733Z,8.20
2023-03-10T09:55:47.979Z,10.38
2023-03-10T09:57:53.139Z,10.38
2023-03-10T10:00:02.564Z,5.72
2023-03-10T10:02:19.090Z,7.53
2023-03-10T10:04:28.086Z,6.03
2023-03-10T10:06:35.627Z,5.75
2023-03-10T10:08:49.044Z,6.22
2023-03-10T10:10:56.412Z,6.10
2023-03-10T10:13:03.267Z,4.95
2023-03-10T10:15:16.276Z,7.43
2023-03-10T10:17:41.677Z,6.47
2023-03-10T10:19:49.926Z,5.65
2023-03-10T10:22:08.600Z,7.07
2023-03-10T10:24:10.340Z,8.85
2023-03-10T10:26:23.668Z,5.85
2023-03-10T10:28:43.789Z,6.05
2023-03-10T10:30:45.468Z,4.47
2023-03-10T10:33:02.193Z,5.60
2023-03-10T10:35:15.623Z,6.20
2023-03-10T10:37:24.815Z,6.32
2023-03-10T10:39:42.317Z,3.35
2023-03-10T10:41:43.954Z,7.75
2023-03-10T10:43:46.292Z,9.45
2023-03-10T10:45:54.570Z,3.90
2023-03-10T10:47:56.558Z,5.45
2023-03-10T10:50:18.195Z,5.75
2023-03-10T10:52:23.194Z,2.90
2023-03-10T10:54:29.001Z,6.95
2023-03-10T10:56:30.915Z,4.35
2023-03-10T10:58:37.952Z,9.02
2023-03-10T11:00:39.805Z,6.65
2023-03-10T11:02:41.368Z,6.25
2023-03-10T11:04:45.519Z,7.70
2023-03-10T11:06:47.518Z,6.35
2023-03-10T11:08:52.601Z,7.45
2023-03-10T11:11:04.219Z,4.63
2023-03-10T11:13:16.525Z,5.30
2023-03-10T11:15:36.608Z,9.35
2023-03-10T11:17:41.862Z,5.22
2023-03-10T11:20:15.061Z,8.73
2023-03-10T11:22:19.316Z,7.38
2023-03-10T11:24:29.147Z,9.18
2023-03-10T11:26:36.395Z,9.38
2023-03-10T11:29:10.574Z,8.82
2023-03-10T11:31:25.274Z,11.40
2023-03-10T11:33:42.820Z,11.65
2023-03-10T11:35:48.005Z,11.15
2023-03-10T11:38:15.201Z,9.77
2023-03-10T11:40:27.035Z,5.97
2023-03-10T11:42:48.254Z,9.20
2023-03-10T11:45:17.761Z,7.15
2023-03-10T11:47:51.654Z,8.88
2023-03-10T11:50:10.672Z,7.25
2023-03-10T11:52:16.921Z,8.90
2023-03-10T11:54:27.035Z,9.05
2023-03-10T11:56:29.037Z,8.48
2023-03-10T11:58:43.469Z,9.25
2023-03-10T12:00:46.625Z,11.35
2023-03-10T12:03:03.724Z,7.55
2023-03-10T12:05:22.591Z,8.60
2023-03-10T12:07:24.198Z,7.97
2023-03-10T12:09:39.855Z,6.93
2023-03-10T12:11:41.429Z,8.05
2023-03-10T12:13:46.339Z,6.03
2023-03-10T12:15:48.922Z,7.07
2023-03-10T12:17:54.263Z,11.15
2023-03-10T12:20:13.888Z,6.88
2023-03-10T12:22:23.026Z,8.98
2023-03-10T12:24:53.026Z,38.33
2023-03-10T12:26:59.543Z,19.25
2023-03-10T12:29:19.839Z,29.98
2023-03-10T12:31:39.808Z,13.98
2023-03-10T12:33:44.657Z,23.75
2023-03-10T12:35:50.970Z,12.20
2023-03-10T12:38:30.957Z,5.78
2023-03-10T12:42:50.311Z,17.17
2023-03-10T12:45:17.259Z,105.47
2023-03-10T12:47:50.717Z,20.33
2023-03-10T12:50:02.600Z,17.70
2023-03-10T12:52:07.083Z,86.25
2023-03-10T12:54:17.722Z,20.15
2023-03-10T12:56:31.169Z,11.45
2023-03-10T12:58:35.861Z,63.20
2023-03-10T13:00:49.045Z,6.32
2023-03-10T13:03:02.389Z,10.98
2023-03-10T13:05:18.170Z,659.47
2023-03-10T13:07:20.081Z,13.07
2023-03-10T13:09:39.110Z,22.90
2023-03-10T13:12:04.696Z,12.03
2023-03-10T13:14:18.382Z,8.48
2023-03-10T13:16:27.252Z,25.45
2023-03-10T13:18:29.494Z,39.70
2023-03-10T13:20:37.064Z,15.98
2023-03-10T13:22:38.776Z,11.15
2023-03-10T13:24:41.625Z,16.35
2023-03-10T13:26:43.160Z,12.50
2023-03-10T13:29:02.461Z,22.70
2023-03-10T13:31:16.053Z,18.95
2023-03-10T13:33:27.387Z,19.50
2023-03-10T13:35:37.382Z,13.57
2023-03-10T13:37:39.091Z,37.60
2023-03-10T13:39:41.368Z,50.75
2023-03-10T13:41:48.722Z,23.83
2023-03-10T13:43:55.171Z,17.70
2023-03-10T13:46:01.327Z,11.85
2023-03-10T13:48:05.013Z,20.80
2023-03-10T13:50:14.821Z,11.40
2023-03-10T13:52:20.515Z,11.13
2023-03-10T13:54:26.314Z,23.80
2023-03-10T13:56:36.019Z,15.05
2023-03-10T13:58:38.383Z,174.70
2023-03-10T14:00:40.142Z,30.02
2023-03-10T14:02:45.044Z,45.72
2023-03-10T14:04:48.607Z,69.75
2023-03-10T14:07:11.117Z,44.15
2023-03-10T14:09:23.565Z,76.35
2023-03-10T14:11:34.453Z,99.82
2023-03-10T14:13:44.474Z,116.97
2023-03-10T14:15:54.140Z,95.45
2023-03-10T14:18:08.409Z,40.83
2023-03-10T14:20:24.648Z,47.67
2023-03-10T14:22:40.538Z,24.15
2023-03-10T14:24:42.997Z,31.85
2023-03-10T14:26:44.867Z,16.33
2023-03-10T14:28:46.389Z,14.63
2023-03-10T14:30:48.035Z,16.45
2023-03-10T14:32:50.069Z,13.48
2023-03-10T14:34:54.784Z,13.70
2023-03-10T14:36:56.354Z,10.40
2023-03-10T14:38:57.927Z,7.55
2023-03-10T14:40:59.488Z,7.47
2023-03-10T14:43:02.476Z,12.05
2023-03-10T14:45:41.445Z,11.02
2023-03-10T14:47:43.259Z,12.52
2023-03-10T14:49:45.197Z,25.73
2023-03-10T14:51:47.029Z,24.30
2023-03-10T14:53:48.729Z,72.97
2023-03-10T14:55:52.949Z,31.67
2023-03-10T14:58:01.719Z,31.70
2023-03-10T15:00:10.327Z,29.90
2023-03-10T15:02:22.398Z,26.88
2023-03-10T15:04:23.953Z,35.92
2023-03-10T15:06:25.726Z,23.38
2023-03-10T15:08:30.354Z,34.10
2023-03-10T15:10:35.964Z,26.60
2023-03-10T15:12:38.232Z,13.80
2023-03-10T15:14:45.466Z,11.55
2023-03-10T15:16:47.039Z,13.52
2023-03-10T15:18:49.407Z,12.93
2023-03-10T15:25:39.820Z,22.30
2023-03-10T15:27:41.929Z,12.38
2023-03-10T15:29:43.511Z,19.65
2023-03-10T15:31:45.354Z,17.17
2023-03-10T15:33:47.196Z,27.02
2023-03-10T15:35:49.093Z,27.58
2023-03-10T15:37:52.006Z,16.95
2023-03-10T15:39:53.516Z,15.18
2023-03-10T15:41:55.060Z,14.43
2023-03-10T15:43:57.006Z,19.10
2023-03-10T15:45:58.585Z,20.55
2023-03-10T15:48:00.343Z,22.50
2023-03-10T15:50:02.061Z,18.38
2023-03-10T15:52:03.812Z,32.92
2023-03-10T15:54:12.481Z,47.33
2023-03-10T15:56:15.423Z,100.22
2023-03-10T15:58:20.258Z,79.85
2023-03-10T16:00:26.775Z,82.72
2023-03-10T16:02:28.307Z,216.27
2023-03-10T16:04:31.095Z,93.38
2023-03-10T16:06:34.143Z,102.93
2023-03-10T16:08:39.833Z,61.88
2023-03-10T16:10:51.248Z,89.75
2023-03-10T16:12:55.144Z,54.92
2023-03-10T16:14:57.280Z,78.13
2023-03-10T16:16:59.009Z,68.43
2023-03-10T16:19:00.556Z,151.18
2023-03-10T16:21:04.045Z,208.90
2023-03-10T16:23:05.815Z,139.45
2023-03-10T16:25:17.292Z,36.65
2023-03-10T16:27:18.899Z,37.47
2023-03-10T16:29:20.488Z,40.55
2023-03-10T16:31:24.639Z,43.67
2023-03-10T16:33:26.628Z,46.50
2023-03-10T16:35:28.801Z,43.72
2023-03-10T16:37:30.337Z,40.03
2023-03-10T16:39:31.926Z,33.50
2023-03-10T16:41:33.523Z,27.65
2023-03-10T16:43:35.372Z,25.95
2023-03-10T16:45:36.912Z,20.48
2023-03-10T16:47:38.909Z,25.42
2023-03-10T16:49:40.476Z,39.30
2023-03-10T16:51:44.573Z,27.15
2023-03-10T16:53:46.928Z,29.13
2023-03-10T16:55:48.692Z,37.25
2023-03-10T16:57:50.371Z,57.67
2023-03-10T16:59:51.897Z,54.28
2023-03-10T17:01:53.843Z,48.95
2023-03-10T17:03:56.268Z,39.88
2023-03-10T17:05:58.227Z,50.38
2023-03-10T17:08:02.562Z,127.70
2023-03-10T17:10:04.401Z,66.20
2023-03-10T17:12:07.027Z,35.10
2023-03-10T17:14:12.164Z,28.83
2023-03-10T17:16:15.902Z,25.73
2023-03-10T17:18:19.674Z,22.02
2023-03-10T17:20:21.570Z,24.83
2023-03-10T17:22:23.113Z,30.50
2023-03-10T17:24:25.141Z,33.88
2023-03-10T17:26:26.721Z,30.35
2023-03-10T17:28:28.263Z,29.98
2023-03-10T17:30:29.815Z,29.33
2023-03-10T17:32:31.379Z,34.30
2023-03-10T17:34:33.103Z,36.92
2023-03-10T17:36:35.054Z,41.28
2023-03-10T17:38:37.451Z,53.92
2023-03-10T17:40:43.026Z,53.05
2023-03-10T17:42:44.888Z,46.22
2023-03-10T17:44:46.800Z,44.88
2023-03-10T17:46:48.534Z,44.55
2023-03-10T17:48:53.266Z,52.17
2023-03-10T17:50:54.868Z,46.70
2023-03-10T17:52:56.373Z,43.60
2023-03-10T17:54:58.004Z,43.10
2023-03-10T17:56:59.524Z,51.20
2023-03-10T17:59:01.395Z,62.95
2023-03-10T18:01:11.152Z,69.95
2023-03-10T18:03:12.805Z,117.78
2023-03-10T18:05:14.453Z,133.20
2023-03-10T18:07:15.979Z,94.00
2023-03-10T18:09:17.545Z,65.38
2023-03-10T18:11:21.124Z,90.95
2023-03-10T18:13:22.695Z,89.85
2023-03-10T18:15:24.207Z,93.90
2023-03-10T18:17:27.102Z,98.78
2023-03-10T18:19:28.884Z,98.00
2023-03-10T18:21:30.667Z,81.60
2023-03-10T18:23:32.160Z,71.93
2023-03-10T18:25:33.811Z,66.22
2023-03-10T18:27:35.383Z,94.07
2023-03-10T18:29:36.880Z,178.80
2023-03-10T18:31:39.913Z,130.73
2023-03-10T18:33:41.470Z,245.13
2023-03-10T18:35:45.722Z,114.90
2023-03-10T18:37:47.291Z,62.08
2023-03-10T18:39:48.789Z,111.18
2023-03-10T18:41:54.027Z,58.20
2023-03-10T18:43:55.522Z,52.70
2023-03-10T18:45:57.034Z,59.33
2023-03-10T18:47:58.653Z,55.63
2023-03-10T18:50:00.199Z,69.75
2023-03-10T18:52:02.267Z,44.10
2023-03-10T18:54:06.487Z,40.47
2023-03-10T18:56:09.790Z,40.40
2023-03-10T18:58:11.432Z,41.70
2023-03-10T19:00:17.409Z,37.08
2023-03-10T19:02:18.990Z,38.20
2023-03-10T19:04:20.741Z,36.55
2023-03-10T19:06:22.610Z,52.22
2023-03-10T19:08:25.642Z,62.47
2023-03-10T19:10:27.265Z,61.95
2023-03-10T19:12:28.879Z,64.25
2023-03-10T19:14:30.385Z,58.20
2023-03-10T19:16:33.204Z,57.60
2023-03-10T19:18:36.162Z,61.70
2023-03-10T19:20:38.001Z,57.92
2023-03-10T19:22:42.076Z,66.10
2023-03-10T19:24:43.600Z,65.78
2023-03-10T19:26:46.902Z,52.40
2023-03-10T19:28:48.463Z,56.90
2023-03-10T19:30:49.992Z,39.65
2023-03-10T19:32:52.219Z,39.25
2023-03-10T19:34:53.889Z,36.75
2023-03-10T19:36:55.433Z,35.42
2023-03-10T19:38:57.031Z,24.73
2023-03-10T19:40:58.607Z,20.92
2023-03-10T19:43:00.581Z,21.83
2023-03-10T19:45:02.253Z,16.00
2023-03-10T19:47:03.910Z,17.75
2023-03-10T19:49:06.736Z,15.65
2023-03-10T19:51:09.326Z,15.60
2023-03-10T19:53:10.828Z,15.65
2023-03-10T19:55:19.783Z,16.73
2023-03-10T19:57:21.761Z,15.60
2023-03-10T19:59:23.458Z,14.68
2023-03-10T20:01:26.727Z,19.05
2023-03-10T20:03:30.745Z,16.27
2023-03-10T20:05:33.084Z,16.55
2023-03-10T20:07:34.636Z,17.05
2023-03-10T20:09:36.248Z,20.10
2023-03-10T20:11:39.470Z,13.55
2023-03-10T20:13:42.902Z,14.80
2023-03-10T20:15:44.596Z,15.75
2023-03-10T20:17:46.515Z,18.30
2023-03-10T20:19:48.172Z,18.60
2023-03-10T20:21:50.558Z,18.67
2023-03-10T20:23:53.678Z,18.67
2023-03-10T20:26:05.062Z,17.75
2023-03-10T20:28:07.314Z,17.52
2023-03-10T20:30:20.072Z,17.80
2023-03-10T20:32:21.665Z,18.38
2023-03-10T20:34:25.748Z,19.15
2023-03-10T20:36:27.775Z,19.85
2023-03-10T20:38:29.371Z,14.85
2023-03-10T20:40:30.890Z,16.13
2023-03-10T20:42:33.222Z,23.77
2023-03-10T20:44:34.971Z,20.13
2023-03-10T20:46:36.474Z,19.05
2023-03-10T20:48:38.245Z,16.00
2023-03-10T20:50:40.225Z,17.17
2023-03-10T20:52:43.186Z,14.30
2023-03-10T20:54:44.710Z,13.38
2023-03-10T20:56:46.314Z,23.08
2023-03-10T20:58:47.853Z,17.98
2023-03-10T21:00:49.483Z,14.90
2023-03-10T21:02:52.945Z,17.00
2023-03-10T21:04:55.552Z,16.38
2023-03-10T21:06:57.061Z,15.23
2023-03-10T21:09:01.799Z,21.40
2023-03-10T21:11:03.900Z,19.15
2023-03-10T21:13:05.818Z,22.00
2023-03-10T21:15:08.960Z,21.95
2023-03-10T21:17:10.736Z,20.35
2023-03-10T21:19:12.952Z,20.63
2023-03-10T21:21:14.567Z,18.63
2023-03-10T21:23:16.107Z,20.10
2023-03-10T21:25:21.375Z,22.92
2023-03-10T21:27:27.234Z,23.77
2023-03-10T21:29:28.930Z,19.08
2023-03-10T21:31:30.774Z,26.05
2023-03-10T21:33:32.647Z,18.98
2023-03-10T21:35:38.513Z,19.02
2023-03-10T21:37:42.363Z,22.80
2023-03-10T21:39:43.989Z,20.63
2023-03-10T21:41:45.532Z,23.58
2023-03-10T21:43:47.197Z,22.27
2023-03-10T21:45:48.902Z,23.23
2023-03-10T21:47:50.811Z,22.10
2023-03-10T21:49:52.453Z,21.30
2023-03-10T21:51:54.101Z,20.75
2023-03-10T21:53:55.684Z,19.58
2023-03-10T21:55:58.158Z,22.17
2023-03-10T21:58:00.213Z,21.80
2023-03-10T22:00:01.740Z,26.38
2023-03-10T22:02:03.810Z,30.88
2023-03-10T22:04:05.334Z,44.05
2023-03-10T22:06:06.950Z,36.13
2023-03-10T22:08:08.552Z,32.55
2023-03-10T22:10:11.685Z,32.92
2023-03-10T22:12:13.532Z,27.30
2023-03-10T22:14:15.117Z,33.13
2023-03-10T22:16:17.407Z,29.27
2023-03-10T22:18:19.007Z,33.35
2023-03-10T22:20:24.870Z,34.17
2023-03-10T22:22:26.369Z,43.33
2023-03-10T22:24:27.948Z,74.68
2023-03-10T22:26:29.526Z,50.47
2023-03-10T22:28:31.215Z,44.22
2023-03-10T22:30:32.872Z,40.25
2023-03-10T22:32:34.538Z,39.80
2023-03-10T22:34:36.111Z,32.13
2023-03-10T22:36:37.643Z,34.30
2023-03-10T22:38:39.236Z,34.80
2023-03-10T22:40:40.780Z,34.85
2023-03-10T22:42:42.964Z,33.83
2023-03-10T22:44:44.507Z,36.42
2023-03-10T22:46:47.541Z,53.88
2023-03-10T22:48:49.245Z,46.63
2023-03-10T22:50:50.803Z,47.85
2023-03-10T22:52:52.988Z,51.55
2023-03-10T22:54:54.586Z,43.47
2023-03-10T22:56:56.256Z,47.13
2023-03-10T22:58:57.800Z,44.25
2023-03-10T23:01:00.094Z,39.65
2023-03-10T23:03:02.400Z,41.35
2023-03-10T23:05:04.318Z,39.95
2023-03-10T23:07:06.020Z,52.05
2023-03-10T23:09:10.642Z,51.20
2023-03-10T23:11:15.058Z,51.85
2023-03-10T23:13:17.093Z,52.03
2023-03-10T23:15:31.419Z,65.80
2023-03-10T23:17:33.691Z,60.47
2023-03-10T23:19:35.765Z,52.80
2023-03-10T23:21:37.319Z,43.03
2023-03-10T23:23:39.926Z,32.35
2023-03-10T23:25:43.982Z,49.38
2023-03-10T23:27:45.759Z,57.40
2023-03-10T23:29:47.333Z,65.45
2023-03-10T23:31:49.165Z,57.85
2023-03-10T23:33:50.793Z,55.17
2023-03-10T23:35:55.083Z,34.47
2023-03-10T23:37:57.736Z,30.38
2023-03-10T23:39:59.261Z,33.22
2023-03-10T23:42:00.849Z,34.28
2023-03-10T23:44:02.415Z,33.50
2023-03-10T23:46:09.439Z,28.13
2023-03-10T23:48:16.092Z,30.88
2023-03-10T23:50:33.554Z,32.08
2023-03-10T23:52:35.480Z,32.75
2023-03-10T23:54:36.994Z,37.55
2023-03-10T23:56:38.506Z,38.97
2023-03-10T23:58:40.297Z,38.63
